Time;durP1;ratioP1;P1;durP2;ratioP2;P2;SDS_P1;SDS_P2;PMS_P1;PMS_P2;Temp;Humidity;BMP_temperature;BMP_pressure;BME280_temperature;BME280_humidity;BME280_pressure;Samples;Min_cycle;Max_cycle;Signal;HPM_P1;HPM_P2
2021/09/09 00:01:22;;;;;;;13.38;9.98;;;16.20;99.90;;;;;;6127591;23;20513;-68
2021/09/09 00:03:48;;;;;;;11.63;10.20;;;16.20;99.90;;;;;;6127367;23;20021;-68
2021/09/09 00:06:13;;;;;;;13.48;10.68;;;16.20;99.90;;;;;;6127208;23;20009;-68
2021/09/09 00:08:39;;;;;;;11.07;9.98;;;16.20;99.90;;;;;;6127285;23;20238;-68
2021/09/09 00:11:05;;;;;;;10.98;9.73;;;16.20;99.90;;;;;;6127047;23;20013;-68
2021/09/09 00:13:30;;;;;;;11.80;10.60;;;16.20;99.90;;;;;;6127239;23;20013;-68
2021/09/09 00:15:56;;;;;;;13.13;9.98;;;16.20;99.90;;;;;;6127448;23;20021;-68
2021/09/09 00:18:21;;;;;;;12.45;11.10;;;16.20;99.90;;;;;;6127135;23;20025;-68
2021/09/09 00:20:47;;;;;;;11.25;9.73;;;16.20;99.90;;;;;;6126994;23;20079;-68
2021/09/09 00:23:12;;;;;;;13.38;10.88;;;16.10;99.90;;;;;;6126623;23;20025;-68
2021/09/09 00:25:38;;;;;;;12.30;10.43;;;16.10;99.90;;;;;;6127184;23;20453;-68
2021/09/09 00:28:04;;;;;;;13.50;11.30;;;16.10;99.90;;;;;;6127093;23;20326;-68
2021/09/09 00:30:29;;;;;;;13.77;11.20;;;16.10;99.90;;;;;;6127088;23;20010;-68
2021/09/09 00:32:55;;;;;;;14.45;10.52;;;16.10;99.90;;;;;;6127065;23;20021;-68
2021/09/09 00:35:20;;;;;;;11.30;10.07;;;16.10;99.90;;;;;;6126877;23;20353;-68
2021/09/09 00:37:46;;;;;;;14.30;11.43;;;16.10;99.90;;;;;;6126955;23;20092;-68
2021/09/09 00:40:12;;;;;;;12.70;11.18;;;16.10;99.90;;;;;;6102473;23;20020;-68
2021/09/09 00:42:40;;;;;;;11.38;10.30;;;16.00;99.90;;;;;;6126994;23;20009;-68
2021/09/09 00:45:05;;;;;;;15.65;10.98;;;16.00;99.90;;;;;;6153166;23;20025;-68
2021/09/09 00:47:31;;;;;;;12.45;10.88;;;15.90;99.90;;;;;;6127236;23;20013;-68
2021/09/09 00:49:57;;;;;;;13.13;11.52;;;15.90;99.90;;;;;;6126907;23;20014;-68
2021/09/09 00:52:22;;;;;;;12.20;10.38;;;15.80;99.90;;;;;;6153010;23;20096;-68
2021/09/09 00:54:48;;;;;;;17.70;11.48;;;15.80;99.90;;;;;;6126925;23;20502;-68
2021/09/09 00:57:16;;;;;;;11.60;10.38;;;15.70;99.90;;;;;;6126914;23;20021;-68
2021/09/09 00:59:44;;;;;;;13.27;11.98;;;15.60;99.90;;;;;;6126762;23;20064;-68
2021/09/09 01:02:10;;;;;;;11.75;10.40;;;15.60;99.90;;;;;;6126545;23;20430;-69
2021/09/09 01:04:36;;;;;;;12.63;11.27;;;15.70;99.90;;;;;;6102286;23;20014;-69
2021/09/09 01:07:02;;;;;;;11.68;10.57;;;15.60;99.90;;;;;;6102092;23;20337;-69
2021/09/09 01:09:27;;;;;;;13.68;11.52;;;15.50;99.90;;;;;;6126552;23;20017;-68
2021/09/09 01:11:53;;;;;;;12.25;11.05;;;15.50;99.90;;;;;;6153032;23;20023;-68
2021/09/09 01:14:19;;;;;;;12.13;10.93;;;15.40;99.90;;;;;;6126646;23;20025;-69
2021/09/09 01:16:46;;;;;;;12.45;10.48;;;15.40;99.90;;;;;;6152877;23;20084;-69
2021/09/09 01:19:13;;;;;;;13.18;10.68;;;15.40;99.90;;;;;;6126584;23;20063;-68
2021/09/09 01:21:39;;;;;;;13.15;10.52;;;15.20;99.90;;;;;;6126198;23;20384;-69
2021/09/09 01:24:13;;;;;;;11.43;10.13;;;15.20;99.90;;;;;;6126937;23;20013;-69
2021/09/09 01:26:56;;;;;;;13.52;11.85;;;15.10;99.90;;;;;;6102633;23;20440;-69
2021/09/09 01:29:24;;;;;;;11.98;10.63;;;15.20;99.90;;;;;;6126758;23;20128;-69
2021/09/09 01:31:51;;;;;;;12.80;11.50;;;15.10;99.90;;;;;;6126262;23;20064;-69
2021/09/09 01:34:16;;;;;;;12.55;10.88;;;15.00;99.90;;;;;;6152981;23;20010;-68
2021/09/09 01:36:42;;;;;;;12.15;10.85;;;15.00;99.90;;;;;;6126099;23;20318;-68
2021/09/09 01:39:08;;;;;;;14.30;11.80;;;15.00;99.90;;;;;;6126371;23;20009;-68
2021/09/09 01:41:33;;;;;;;12.20;11.00;;;15.00;99.90;;;;;;6126272;23;20036;-68
2021/09/09 01:43:59;;;;;;;12.68;11.38;;;14.90;99.90;;;;;;6126308;23;20017;-68
2021/09/09 01:46:25;;;;;;;13.73;11.95;;;14.90;99.90;;;;;;6126212;23;20418;-68
2021/09/09 01:48:50;;;;;;;13.15;11.75;;;14.90;99.90;;;;;;6126429;23;20346;-68
2021/09/09 01:51:16;;;;;;;14.85;11.82;;;14.80;99.90;;;;;;6126455;23;20385;-68
2021/09/09 01:53:41;;;;;;;13.95;12.55;;;14.80;99.90;;;;;;6126213;23;20517;-68
2021/09/09 01:56:08;;;;;;;13.05;11.73;;;14.80;99.90;;;;;;6126414;23;20485;-70
2021/09/09 01:58:33;;;;;;;13.98;12.57;;;14.60;99.90;;;;;;6125741;23;20021;-70
2021/09/09 02:00:59;;;;;;;14.38;13.00;;;14.60;99.90;;;;;;6152819;23;20081;-71
2021/09/09 02:03:25;;;;;;;14.15;12.85;;;14.60;99.90;;;;;;6126372;23;20014;-71
2021/09/09 02:05:51;;;;;;;13.88;12.50;;;14.40;99.90;;;;;;6152811;23;20289;-71
2021/09/09 02:08:17;;;;;;;14.88;13.27;;;14.40;99.90;;;;;;6152681;23;20021;-71
2021/09/09 02:10:43;;;;;;;13.75;12.25;;;14.40;99.90;;;;;;6152455;23;20282;-71
2021/09/09 02:13:08;;;;;;;13.70;12.40;;;14.30;99.90;;;;;;6152597;23;20089;-71
2021/09/09 02:15:34;;;;;;;14.65;12.98;;;14.40;99.90;;;;;;6101975;23;20444;-71
2021/09/09 02:18:00;;;;;;;14.13;12.73;;;14.40;99.90;;;;;;6152207;23;20036;-71
2021/09/09 02:20:26;;;;;;;13.55;12.10;;;14.30;99.90;;;;;;6152727;23;20040;-71
2021/09/09 02:22:52;;;;;;;14.55;13.15;;;14.30;99.90;;;;;;6152075;23;20044;-71
2021/09/09 02:25:17;;;;;;;14.18;12.73;;;14.30;99.90;;;;;;6152602;23;20013;-71
2021/09/09 02:27:43;;;;;;;16.50;13.25;;;14.30;99.90;;;;;;6152574;23;20433;-71
2021/09/09 02:30:10;;;;;;;16.17;13.27;;;14.20;99.90;;;;;;6152614;23;20099;-71
2021/09/09 02:32:35;;;;;;;15.00;13.13;;;14.20;99.90;;;;;;6126021;23;20139;-71
2021/09/09 02:35:01;;;;;;;15.63;14.00;;;14.20;99.90;;;;;;6152627;23;20022;-71
2021/09/09 02:37:26;;;;;;;13.88;12.25;;;14.20;99.90;;;;;;6152366;23;20080;-71
2021/09/09 02:39:52;;;;;;;14.55;12.18;;;14.20;99.90;;;;;;6126123;23;20017;-71
2021/09/09 02:42:18;;;;;;;15.07;13.52;;;14.30;99.90;;;;;;6125951;23;20064;-71
2021/09/09 02:44:43;;;;;;;13.63;12.32;;;14.20;99.90;;;;;;6152332;23;20104;-71
2021/09/09 02:47:09;;;;;;;15.15;13.57;;;14.30;99.90;;;;;;6153133;23;20067;-71
2021/09/09 02:49:34;;;;;;;15.73;14.13;;;14.20;99.90;;;;;;6127933;23;20076;-71
2021/09/09 02:52:00;;;;;;;15.70;13.95;;;14.10;99.90;;;;;;6128215;23;20433;-71
2021/09/09 02:54:25;;;;;;;14.23;12.75;;;14.10;99.90;;;;;;6154313;23;20009;-71
2021/09/09 02:56:51;;;;;;;14.52;13.13;;;14.20;99.90;;;;;;6154433;23;20085;-71
2021/09/09 02:59:17;;;;;;;14.10;12.70;;;14.20;99.90;;;;;;6154227;23;20036;-70
2021/09/09 03:01:42;;;;;;;13.90;12.50;;;14.20;99.90;;;;;;6127940;23;20083;-70
2021/09/09 03:04:08;;;;;;;15.48;13.85;;;14.20;99.90;;;;;;6153934;23;20361;-70
2021/09/09 03:06:33;;;;;;;14.70;13.15;;;14.10;99.90;;;;;;6154373;23;20013;-70
2021/09/09 03:08:59;;;;;;;16.23;14.50;;;14.20;99.90;;;;;;6154250;23;20013;-70
2021/09/09 03:11:25;;;;;;;15.27;13.63;;;14.20;99.90;;;;;;6154341;23;20449;-70
2021/09/09 03:13:50;;;;;;;15.85;14.18;;;14.10;99.90;;;;;;6127568;23;20013;-71
2021/09/09 03:16:16;;;;;;;15.43;13.07;;;14.00;99.90;;;;;;6127937;23;20018;-71
2021/09/09 03:18:42;;;;;;;15.63;13.95;;;14.00;99.90;;;;;;6127549;23;20572;-71
2021/09/09 03:21:07;;;;;;;15.98;14.13;;;14.00;99.90;;;;;;6127563;23;20337;-71
2021/09/09 03:23:33;;;;;;;19.00;14.77;;;14.00;99.90;;;;;;6154124;23;20010;-71
2021/09/09 03:25:58;;;;;;;16.55;14.85;;;14.00;99.90;;;;;;6127665;23;20107;-71
2021/09/09 03:28:24;;;;;;;16.40;14.60;;;13.80;99.90;;;;;;6127502;23;20021;-71
2021/09/09 03:30:50;;;;;;;20.05;16.13;;;13.70;99.90;;;;;;6103345;23;20025;-70
2021/09/09 03:33:15;;;;;;;17.92;16.02;;;13.70;99.90;;;;;;6127549;23;20025;-70
2021/09/09 03:35:41;;;;;;;16.20;14.50;;;13.80;99.90;;;;;;6127555;23;20092;-70
2021/09/09 03:38:08;;;;;;;17.42;15.32;;;13.70;99.90;;;;;;6103172;23;20018;-70
2021/09/09 03:40:34;;;;;;;16.77;15.13;;;13.70;99.90;;;;;;6153903;23;20049;-70
2021/09/09 03:42:59;;;;;;;16.05;14.35;;;13.70;99.90;;;;;;6154002;23;20021;-70
2021/09/09 03:45:25;;;;;;;16.85;15.15;;;13.70;99.90;;;;;;6127353;23;20021;-70
2021/09/09 03:47:50;;;;;;;17.92;14.90;;;13.70;99.90;;;;;;6154018;23;20013;-70
2021/09/09 03:50:16;;;;;;;18.55;15.63;;;13.60;99.90;;;;;;6153849;23;20009;-70
2021/09/09 03:52:41;;;;;;;17.15;15.45;;;13.60;99.90;;;;;;6127465;23;20028;-70
2021/09/09 03:55:08;;;;;;;18.38;16.13;;;13.70;99.90;;;;;;6102833;23;20032;-70
2021/09/09 03:57:33;;;;;;;20.10;15.15;;;13.70;99.90;;;;;;6127343;23;20029;-70
2021/09/09 03:59:59;;;;;;;17.67;15.80;;;13.60;99.90;;;;;;6127264;23;20488;-70
2021/09/09 04:02:24;;;;;;;17.17;15.40;;;13.60;99.90;;;;;;6127456;23;20488;-70
2021/09/09 04:04:50;;;;;;;16.55;14.82;;;13.60;99.90;;;;;;6153664;23;20005;-70
2021/09/09 04:07:15;;;;;;;17.42;15.63;;;13.60;99.90;;;;;;6127357;23;20100;-70
2021/09/09 04:09:41;;;;;;;17.63;15.82;;;13.60;99.90;;;;;;6153372;23;20017;-70
2021/09/09 04:12:06;;;;;;;17.15;15.38;;;13.60;99.90;;;;;;6127270;23;20024;-70
2021/09/09 04:14:33;;;;;;;17.02;15.32;;;13.70;99.90;;;;;;6153564;23;20319;-71
2021/09/09 04:16:59;;;;;;;19.50;16.00;;;13.70;99.90;;;;;;6127153;23;20013;-70
2021/09/09 04:19:25;;;;;;;19.25;16.10;;;13.70;99.90;;;;;;6127055;23;20069;-70
2021/09/09 04:21:52;;;;;;;18.83;16.83;;;13.70;99.90;;;;;;6127041;23;20017;-70
2021/09/09 04:24:20;;;;;;;19.42;17.42;;;13.70;99.90;;;;;;6153485;23;20067;-71
2021/09/09 04:26:46;;;;;;;20.67;16.27;;;13.60;99.90;;;;;;6153289;23;20017;-71
2021/09/09 04:29:11;;;;;;;18.05;16.25;;;13.70;99.90;;;;;;6153128;23;20005;-71
2021/09/09 04:31:37;;;;;;;18.63;16.63;;;13.70;99.90;;;;;;6126967;23;20053;-71
2021/09/09 04:34:02;;;;;;;18.55;16.40;;;13.70;99.90;;;;;;6153514;23;20049;-70
2021/09/09 04:36:28;;;;;;;22.38;18.83;;;13.60;99.90;;;;;;6153712;23;20010;-70
2021/09/09 04:38:54;;;;;;;18.00;16.15;;;13.60;99.90;;;;;;6126897;23;20022;-70
2021/09/09 04:41:19;;;;;;;19.58;17.60;;;13.50;99.90;;;;;;6126604;23;20310;-70
2021/09/09 04:43:46;;;;;;;18.98;16.77;;;13.50;99.90;;;;;;6127014;23;20014;-70
2021/09/09 04:46:11;;;;;;;19.73;17.35;;;13.60;99.90;;;;;;6153346;23;20055;-70
2021/09/09 04:48:37;;;;;;;18.58;16.63;;;13.50;99.90;;;;;;6126850;23;20088;-70
2021/09/09 04:51:03;;;;;;;18.92;17.13;;;13.50;99.90;;;;;;6152930;23;20041;-70
2021/09/09 04:53:29;;;;;;;18.95;16.95;;;13.50;99.90;;;;;;6153383;23;20076;-71
2021/09/09 04:55:55;;;;;;;19.67;17.63;;;13.50;99.90;;;;;;6153117;23;20085;-71
2021/09/09 04:58:20;;;;;;;21.75;18.80;;;13.40;99.90;;;;;;6152944;23;20068;-71
2021/09/09 05:00:46;;;;;;;19.27;17.38;;;13.40;99.90;;;;;;6152876;23;20040;-71
2021/09/09 05:03:12;;;;;;;21.67;18.35;;;13.40;99.90;;;;;;6126248;23;20017;-71
2021/09/09 05:05:37;;;;;;;20.83;17.80;;;13.40;99.90;;;;;;6152629;23;20113;-70
2021/09/09 05:08:03;;;;;;;21.77;17.70;;;13.40;99.90;;;;;;6126575;23;20124;-70
2021/09/09 05:10:28;;;;;;;19.40;17.38;;;13.40;99.90;;;;;;6126320;23;20053;-70
2021/09/09 05:12:54;;;;;;;19.88;17.20;;;13.50;99.90;;;;;;6126988;23;20018;-70
2021/09/09 05:15:20;;;;;;;21.38;19.20;;;13.50;99.90;;;;;;6126453;23;20021;-70
2021/09/09 05:17:45;;;;;;;20.92;18.48;;;13.50;99.90;;;;;;6153106;23;20049;-71
2021/09/09 05:20:11;;;;;;;22.65;19.05;;;13.50;99.90;;;;;;6152941;23;20040;-71
2021/09/09 05:22:37;;;;;;;20.58;18.48;;;13.60;99.90;;;;;;6126381;23;20021;-71
2021/09/09 05:25:03;;;;;;;22.08;19.83;;;13.60;99.90;;;;;;6126380;23;20330;-71
2021/09/09 05:27:29;;;;;;;22.23;19.27;;;13.50;99.90;;;;;;6152966;23;20068;-71
2021/09/09 05:29:55;;;;;;;23.98;20.40;;;13.60;99.90;;;;;;6153018;23;20060;-71
2021/09/09 05:32:20;;;;;;;22.25;19.90;;;13.60;99.90;;;;;;6152456;23;20017;-71
2021/09/09 05:34:46;;;;;;;21.67;19.40;;;13.60;99.90;;;;;;6126456;23;20021;-71
2021/09/09 05:37:11;;;;;;;21.80;19.60;;;13.60;99.90;;;;;;6152620;23;20025;-71
2021/09/09 05:39:37;;;;;;;22.08;19.67;;;13.60;99.90;;;;;;6152612;23;20017;-71
2021/09/09 05:42:03;;;;;;;22.30;19.73;;;13.50;99.90;;;;;;6126237;23;20092;-71
2021/09/09 05:44:29;;;;;;;24.20;21.70;;;13.60;99.90;;;;;;6101960;23;20442;-71
2021/09/09 05:46:54;;;;;;;22.10;19.85;;;13.60;99.90;;;;;;6152765;23;20009;-70
2021/09/09 05:49:20;;;;;;;21.70;19.40;;;13.60;99.90;;;;;;6152776;23;20020;-70
2021/09/09 05:51:46;;;;;;;24.20;20.15;;;13.70;99.90;;;;;;6152442;23;20020;-70
2021/09/09 05:54:12;;;;;;;22.42;20.08;;;13.80;99.90;;;;;;6126221;23;20014;-70
2021/09/09 05:56:37;;;;;;;22.97;20.67;;;13.80;99.90;;;;;;6126072;23;20018;-71
2021/09/09 05:59:03;;;;;;;23.50;20.80;;;13.90;99.90;;;;;;6152459;23;20671;-71
2021/09/09 06:01:28;;;;;;;22.75;20.38;;;14.00;99.90;;;;;;6125951;23;20013;-71
2021/09/09 06:03:55;;;;;;;23.38;20.92;;;14.00;99.90;;;;;;6152703;23;20060;-71
2021/09/09 06:06:23;;;;;;;23.42;20.73;;;14.20;99.90;;;;;;6126040;23;20020;-71
2021/09/09 06:08:48;;;;;;;22.15;19.98;;;14.30;99.90;;;;;;6126158;23;20017;-71
2021/09/09 06:11:14;;;;;;;22.70;20.38;;;14.40;99.90;;;;;;6152540;23;20089;-71
2021/09/09 06:13:39;;;;;;;23.35;19.40;;;14.50;99.90;;;;;;6153039;23;20018;-70
2021/09/09 06:16:06;;;;;;;20.25;18.23;;;14.60;99.90;;;;;;6152589;23;20080;-70
2021/09/09 06:18:32;;;;;;;21.45;19.23;;;14.80;99.90;;;;;;6152544;23;20021;-70
2021/09/09 06:20:57;;;;;;;21.33;18.90;;;15.00;99.90;;;;;;6152634;23;20092;-70
2021/09/09 06:23:23;;;;;;;20.80;18.75;;;15.30;99.90;;;;;;6153472;23;20472;-70
2021/09/09 06:25:48;;;;;;;20.60;18.50;;;16.00;99.90;;;;;;6103754;23;20013;-70
2021/09/09 06:28:14;;;;;;;18.90;16.98;;;17.10;99.90;;;;;;6154472;23;20388;-75
2021/09/09 06:30:40;;;;;;;18.63;16.67;;;18.30;99.90;;;;;;6128125;23;20025;-75
2021/09/09 06:33:05;;;;;;;18.92;17.02;;;19.60;99.90;;;;;;6128038;23;20425;-75
2021/09/09 06:35:31;;;;;;;19.58;17.58;;;19.90;99.90;;;;;;6128087;23;20024;-75
2021/09/09 06:37:57;;;;;;;18.05;16.27;;;20.70;99.90;;;;;;6127752;23;20017;-75
2021/09/09 06:40:23;;;;;;;17.70;15.82;;;21.50;99.90;;;;;;6127986;23;20048;-75
2021/09/09 06:42:48;;;;;;;17.63;15.85;;;22.10;99.90;;;;;;6103512;23;20019;-75
2021/09/09 06:45:14;;;;;;;17.05;14.73;;;22.50;99.90;;;;;;6103719;23;20088;-75
2021/09/09 06:47:40;;;;;;;17.65;15.85;;;22.90;99.90;;;;;;6103609;23;20019;-75
2021/09/09 06:50:07;;;;;;;16.67;15.05;;;23.30;99.40;;;;;;6154396;23;20013;-75
2021/09/09 06:52:32;;;;;;;17.40;15.52;;;23.40;98.50;;;;;;6128172;23;20025;-75
2021/09/09 06:54:58;;;;;;;16.50;14.85;;;23.90;97.90;;;;;;6103945;23;20460;-75
2021/09/09 06:57:23;;;;;;;18.77;15.75;;;24.30;97.10;;;;;;6127633;23;20013;-75
2021/09/09 06:59:49;;;;;;;17.50;15.70;;;24.90;96.70;;;;;;6127785;23;20402;-75
2021/09/09 07:02:14;;;;;;;16.52;14.98;;;25.40;93.40;;;;;;6154502;23;20437;-75
2021/09/09 07:04:40;;;;;;;15.48;14.00;;;25.70;93.40;;;;;;6127921;23;20040;-75
2021/09/09 07:07:06;;;;;;;16.42;14.77;;;25.70;93.40;;;;;;6127625;23;20096;-75
2021/09/09 07:09:31;;;;;;;17.05;15.55;;;25.90;93.10;;;;;;6127810;23;20457;-75
2021/09/09 07:11:57;;;;;;;16.73;15.15;;;25.80;92.30;;;;;;6127571;23;20021;-75
2021/09/09 07:14:22;;;;;;;16.55;14.85;;;26.20;92.20;;;;;;6128013;23;20026;-75
2021/09/09 07:16:48;;;;;;;16.67;15.07;;;26.00;92.00;;;;;;6153877;23;20010;-75
2021/09/09 07:19:14;;;;;;;16.63;15.15;;;25.30;91.80;;;;;;6127789;23;20012;-75
2021/09/09 07:21:39;;;;;;;16.02;14.55;;;25.90;91.80;;;;;;6153702;23;20636;-75
2021/09/09 07:24:05;;;;;;;17.13;15.32;;;26.80;91.40;;;;;;6127413;23;20345;-75
2021/09/09 07:26:31;;;;;;;16.15;14.75;;;27.00;88.50;;;;;;6127631;23;20032;-76
2021/09/09 07:28:57;;;;;;;16.90;15.20;;;26.80;89.20;;;;;;6102979;23;20049;-75
2021/09/09 07:31:22;;;;;;;22.70;15.88;;;26.20;86.70;;;;;;6127525;23;20096;-76
2021/09/09 07:33:48;;;;;;;15.15;13.65;;;26.30;89.40;;;;;;6127222;23;20018;-75
2021/09/09 07:36:13;;;;;;;15.50;14.00;;;26.40;90.00;;;;;;6127486;23;20397;-75
2021/09/09 07:38:39;;;;;;;16.90;15.30;;;26.70;90.00;;;;;;6153502;23;20442;-75
2021/09/09 07:41:05;;;;;;;17.30;15.48;;;26.30;90.50;;;;;;6127493;23;20055;-75
2021/09/09 07:43:30;;;;;;;16.17;14.65;;;24.90;91.30;;;;;;6127796;23;20041;-75
2021/09/09 07:45:56;;;;;;;16.15;14.45;;;24.10;93.70;;;;;;6103022;23;20397;-75
2021/09/09 07:48:22;;;;;;;17.38;15.60;;;23.30;96.10;;;;;;6127359;23;20025;-76
2021/09/09 07:50:48;;;;;;;17.05;15.20;;;22.90;98.20;;;;;;6127679;23;20028;-75
2021/09/09 07:53:14;;;;;;;17.10;14.20;;;22.60;99.20;;;;;;6127006;23;20099;-75
2021/09/09 07:55:40;;;;;;;17.08;15.27;;;22.30;99.40;;;;;;6127337;23;20453;-76
2021/09/09 07:58:06;;;;;;;18.58;16.60;;;21.90;99.90;;;;;;6127102;23;20361;-75
2021/09/09 08:00:32;;;;;;;16.88;15.23;;;21.50;99.90;;;;;;6153485;23;20064;-75
2021/09/09 08:02:57;;;;;;;17.88;16.08;;;21.50;99.90;;;;;;6127246;23;20018;-75
2021/09/09 08:05:23;;;;;;;17.02;15.23;;;21.40;99.90;;;;;;6127627;23;20442;-75
2021/09/09 08:07:48;;;;;;;17.05;15.30;;;21.30;99.90;;;;;;6103276;23;20024;-75
2021/09/09 08:10:16;;;;;;;18.10;15.68;;;21.30;99.90;;;;;;6127459;23;20401;-75
2021/09/09 08:12:43;;;;;;;17.70;15.77;;;21.20;99.90;;;;;;6127063;23;20346;-75
2021/09/09 08:15:09;;;;;;;18.35;16.42;;;21.20;99.90;;;;;;6102626;23;20017;-74
2021/09/09 08:17:35;;;;;;;19.52;16.40;;;21.10;99.90;;;;;;6127086;23;20025;-75
2021/09/09 08:20:01;;;;;;;17.92;16.15;;;21.10;99.90;;;;;;6126862;23;20014;-75
2021/09/09 08:22:27;;;;;;;17.30;15.32;;;21.00;99.90;;;;;;6127007;23;20082;-76
2021/09/09 08:24:54;;;;;;;19.92;16.45;;;21.00;99.90;;;;;;6126952;23;20051;-76
2021/09/09 08:27:20;;;;;;;18.35;15.90;;;21.10;99.90;;;;;;6127087;23;20022;-75
2021/09/09 08:29:46;;;;;;;17.38;15.68;;;21.10;99.90;;;;;;6126833;23;20479;-75
2021/09/09 08:32:12;;;;;;;17.02;15.43;;;21.10;99.90;;;;;;6127044;23;20017;-74
2021/09/09 08:34:37;;;;;;;19.60;15.45;;;21.20;99.90;;;;;;6126875;23;20021;-73
2021/09/09 08:37:03;;;;;;;18.77;15.75;;;21.40;99.90;;;;;;6102501;23;20031;-75
2021/09/09 08:39:29;;;;;;;17.08;15.18;;;21.50;99.90;;;;;;6126793;23;20013;-75
2021/09/09 08:41:54;;;;;;;17.27;15.48;;;21.40;99.90;;;;;;6126916;23;20014;-74
2021/09/09 08:44:21;;;;;;;16.10;14.48;;;21.50;99.90;;;;;;6126468;23;20014;-74
2021/09/09 08:46:47;;;;;;;17.65;14.77;;;21.70;99.90;;;;;;6126805;23;20092;-71
2021/09/09 08:49:13;;;;;;;15.88;14.20;;;21.80;99.90;;;;;;6153230;23;20021;-71
2021/09/09 08:51:39;;;;;;;16.50;14.65;;;21.90;99.90;;;;;;6153365;23;20009;-71
2021/09/09 08:54:06;;;;;;;16.02;14.35;;;22.10;99.90;;;;;;6126678;23;20314;-71
2021/09/09 08:56:32;;;;;;;15.90;13.30;;;22.10;99.90;;;;;;6153661;23;20009;-71
2021/09/09 08:58:57;;;;;;;16.35;14.15;;;22.40;99.90;;;;;;6126381;23;20053;-72
2021/09/09 09:01:23;;;;;;;17.35;13.77;;;22.50;99.90;;;;;;6153249;23;20016;-71
2021/09/09 09:03:53;;;;;;;15.02;13.43;;;22.70;99.90;;;;;;6153123;23;20059;-71
2021/09/09 09:06:22;;;;;;;14.40;12.90;;;22.70;99.90;;;;;;6153194;23;20010;-71
2021/09/09 09:08:59;;;;;;;19.42;13.13;;;22.70;99.90;;;;;;6126698;23;20021;-71
2021/09/09 09:11:27;;;;;;;15.05;13.52;;;22.80;99.90;;;;;;6153201;23;20100;-71
2021/09/09 09:13:53;;;;;;;14.40;13.00;;;23.00;99.80;;;;;;6152768;23;20017;-70
2021/09/09 09:16:20;;;;;;;13.70;12.40;;;23.00;99.90;;;;;;6152930;23;20013;-71
2021/09/09 09:18:46;;;;;;;14.05;12.38;;;23.00;99.90;;;;;;6152568;23;20020;-71
2021/09/09 09:21:13;;;;;;;15.40;13.45;;;23.10;99.90;;;;;;6152727;23;20017;-70
2021/09/09 09:23:51;;;;;;;15.13;13.38;;;23.20;99.90;;;;;;6152726;23;20024;-71
2021/09/09 09:26:18;;;;;;;14.57;13.18;;;23.20;99.90;;;;;;6126408;23;20343;-71
2021/09/09 09:28:47;;;;;;;15.48;12.55;;;23.40;99.50;;;;;;6152961;23;20341;-71
2021/09/09 09:31:26;;;;;;;13.13;11.93;;;23.40;99.90;;;;;;6152919;23;20022;-71
2021/09/09 09:33:55;;;;;;;13.65;12.45;;;23.40;99.90;;;;;;6126501;23;20021;-71
2021/09/09 09:36:27;;;;;;;14.25;12.45;;;23.40;99.60;;;;;;6126146;23;20479;-71
2021/09/09 09:39:14;;;;;;;14.50;12.32;;;23.50;99.90;;;;;;6153082;23;20017;-71
2021/09/09 09:41:54;;;;;;;13.35;12.13;;;23.60;99.70;;;;;;6126172;23;20080;-71
2021/09/09 09:44:36;;;;;;;13.20;12.00;;;23.60;99.70;;;;;;6126891;23;20430;-71
2021/09/09 09:47:12;;;;;;;12.98;11.05;;;23.70;99.30;;;;;;6152868;23;20048;-71
2021/09/09 09:49:59;;;;;;;13.57;12.07;;;23.80;99.30;;;;;;6152592;23;20024;-71
2021/09/09 09:52:27;;;;;;;13.25;11.93;;;23.80;99.10;;;;;;6151762;23;20013;-71
2021/09/09 09:54:57;;;;;;;14.93;12.85;;;24.00;99.10;;;;;;6152296;23;20013;-71
2021/09/09 09:57:25;;;;;;;13.43;11.97;;;24.00;99.10;;;;;;6152643;23;20021;-70
2021/09/09 09:59:51;;;;;;;14.65;11.90;;;24.00;99.00;;;;;;6152247;23;20453;-71
2021/09/09 10:02:17;;;;;;;13.65;11.18;;;24.10;98.50;;;;;;6152587;23;20016;-71
2021/09/09 10:04:45;;;;;;;11.70;10.50;;;24.30;98.30;;;;;;6126264;23;20041;-71
2021/09/09 10:07:11;;;;;;;13.98;11.90;;;24.40;98.60;;;;;;6126422;23;20017;-71
2021/09/09 10:09:38;;;;;;;12.25;11.13;;;24.40;98.20;;;;;;6126603;23;20024;-71
2021/09/09 10:12:06;;;;;;;12.55;11.02;;;24.40;98.80;;;;;;6152504;23;20010;-71
2021/09/09 10:14:33;;;;;;;12.43;11.15;;;24.60;97.60;;;;;;6152166;23;20457;-71
2021/09/09 10:17:00;;;;;;;13.05;10.65;;;24.60;97.90;;;;;;6101643;23;20021;-72
2021/09/09 10:19:31;;;;;;;13.05;10.50;;;24.70;98.10;;;;;;6152678;23;20010;-71
2021/09/09 10:22:11;;;;;;;12.63;11.47;;;24.90;97.70;;;;;;6126032;23;20018;-72
2021/09/09 10:24:39;;;;;;;12.50;10.35;;;24.90;96.70;;;;;;6152648;23;20460;-71
2021/09/09 10:27:17;;;;;;;12.95;10.10;;;24.90;96.80;;;;;;6152421;23;20385;-70
2021/09/09 10:30:16;;;;;;;12.07;10.73;;;25.00;96.80;;;;;;6152271;23;20022;-69
2021/09/09 10:32:46;;;;;;;13.18;10.55;;;25.00;96.80;;;;;;6103887;23;20021;-69
2021/09/09 10:35:17;;;;;;;11.77;10.70;;;25.00;96.50;;;;;;6126021;23;20024;-69
2021/09/09 10:37:46;;;;;;;;;;;25.10;96.60;;;;;;6126737;23;20025;-69
2021/09/09 10:40:35;;;;;;;13.73;11.10;;;25.20;96.40;;;;;;6126050;23;20378;-69
2021/09/09 10:43:04;;;;;;;11.50;10.25;;;25.20;94.70;;;;;;6125968;23;20479;-69
2021/09/09 10:45:42;;;;;;;16.98;9.98;;;25.30;96.10;;;;;;6152779;23;20019;-69
2021/09/09 10:48:22;;;;;;;11.15;9.93;;;25.40;94.90;;;;;;6126314;23;20020;-69
2021/09/09 10:51:09;;;;;;;9.52;8.50;;;25.50;95.20;;;;;;6126075;23;20388;-69
2021/09/09 10:53:38;;;;;;;10.98;9.25;;;25.60;95.30;;;;;;6126199;23;20064;-69
2021/09/09 10:56:15;;;;;;;11.40;9.65;;;25.60;95.70;;;;;;6125812;23;20133;-69
2021/09/09 10:58:42;;;;;;;10.65;9.55;;;25.70;93.30;;;;;;6125706;23;20041;-69
2021/09/09 11:01:09;;;;;;;10.13;9.05;;;25.70;93.20;;;;;;6125795;23;20087;-70
2021/09/09 11:03:48;;;;;;;10.48;9.40;;;25.80;94.20;;;;;;6126164;23;20485;-70
2021/09/09 11:06:23;;;;;;;12.02;9.05;;;25.80;94.20;;;;;;6125759;23;20018;-69
2021/09/09 11:08:52;;;;;;;16.48;9.38;;;25.90;95.00;;;;;;6126530;23;20014;-69
2021/09/09 11:11:23;;;;;;;10.18;9.27;;;26.00;95.30;;;;;;6127578;23;20028;-70
2021/09/09 11:13:56;;;;;;;10.10;9.15;;;26.10;92.50;;;;;;6127756;23;20499;-69
2021/09/09 11:16:28;;;;;;;9.80;8.13;;;26.10;92.50;;;;;;6127597;23;20096;-69
2021/09/09 11:18:54;;;;;;;10.93;9.55;;;26.10;93.50;;;;;;6127350;23;20021;-69
2021/09/09 11:21:35;;;;;;;9.00;8.10;;;26.20;92.80;;;;;;6127555;23;20029;-70
2021/09/09 11:24:01;;;;;;;;;;;26.30;92.80;;;;;;6128250;23;20460;-70
2021/09/09 11:26:27;;;;;;;11.50;9.55;;;26.50;92.80;;;;;;6153629;23;19912;-69
2021/09/09 11:28:54;;;;;;;9.20;8.30;;;26.40;90.10;;;;;;6127483;23;20344;-69
2021/09/09 11:31:24;;;;;;;11.65;9.35;;;26.50;90.10;;;;;;6127434;23;20052;-70
2021/09/09 11:33:53;;;;;;;10.85;8.95;;;26.50;90.30;;;;;;6127468;23;20025;-69
2021/09/09 11:36:29;;;;;;;10.00;9.10;;;26.50;91.10;;;;;;6127311;23;20041;-69
2021/09/09 11:38:57;;;;;;;10.02;8.30;;;26.60;90.90;;;;;;6153859;23;20025;-69
2021/09/09 11:41:28;;;;;;;8.70;7.85;;;26.60;87.90;;;;;;6153954;23;20014;-70
2021/09/09 11:43:56;;;;;;;10.13;8.40;;;26.60;88.20;;;;;;6127522;23;20014;-69
2021/09/09 11:46:28;;;;;;;10.80;8.60;;;26.60;86.90;;;;;;6154234;23;20092;-70
2021/09/09 11:48:56;;;;;;;8.63;7.80;;;26.70;90.10;;;;;;6127372;23;20057;-69
2021/09/09 11:51:49;;;;;;;8.82;7.75;;;26.80;90.00;;;;;;6127510;23;20103;-70
2021/09/09 11:54:26;;;;;;;10.95;7.95;;;26.80;88.90;;;;;;6149135;23;20021;-69
2021/09/09 11:57:14;;;;;;;8.85;7.97;;;27.00;89.70;;;;;;6153671;23;20056;-69
2021/09/09 11:59:57;;;;;;;9.20;7.93;;;27.00;90.30;;;;;;6127342;23;20020;-69
2021/09/09 12:02:23;;;;;;;9.18;8.25;;;27.00;89.40;;;;;;6127169;23;20013;-69
2021/09/09 12:04:50;;;;;;;8.70;7.53;;;27.10;82.70;;;;;;6127202;23;20045;-69
2021/09/09 12:07:22;;;;;;;8.38;7.57;;;27.20;88.00;;;;;;6153204;23;20373;-70
2021/09/09 12:09:55;;;;;;;9.32;8.32;;;27.20;86.30;;;;;;6153444;23;20021;-70
2021/09/09 12:12:21;;;;;;;8.95;8.15;;;27.30;85.00;;;;;;6126986;23;20021;-69
2021/09/09 12:15:03;;;;;;;9.02;8.23;;;27.40;87.40;;;;;;6127498;23;20110;-69
2021/09/09 12:17:29;;;;;;;10.35;7.90;;;27.40;87.00;;;;;;6153457;23;20084;-69
2021/09/09 12:20:10;;;;;;;8.27;7.45;;;27.50;88.90;;;;;;6127186;23;20445;-69
2021/09/09 12:22:41;;;;;;;7.70;7.00;;;27.60;87.70;;;;;;6127140;23;20398;-69
2021/09/09 12:25:19;;;;;;;8.57;7.78;;;27.70;88.40;;;;;;6127173;23;20129;-70
2021/09/09 12:28:10;;;;;;;8.93;7.13;;;27.60;79.80;;;;;;6127037;23;20049;-69
2021/09/09 12:30:52;;;;;;;9.07;7.38;;;27.50;83.30;;;;;;6153630;23;20014;-69
2021/09/09 12:33:20;;;;;;;9.95;7.47;;;27.50;86.20;;;;;;6126868;23;20021;-69